createdAt,value
2022-12-19T00:01:38.247Z,15.95
2022-12-19T00:04:09.994Z,19.88
2022-12-19T00:06:43.907Z,15.60
2022-12-19T00:09:13.049Z,16.87
2022-12-19T00:11:40.320Z,15.10
2022-12-19T00:14:09.373Z,14.10
2022-12-19T00:16:36.384Z,15.77
2022-12-19T00:19:03.921Z,21.40
2022-12-19T00:21:34.849Z,20.30
2022-12-19T00:24:09.816Z,16.10
2022-12-19T00:26:48.398Z,12.50
2022-12-19T00:29:15.630Z,15.63
2022-12-19T00:31:43.439Z,17.48
2022-12-19T00:34:10.774Z,17.67
2022-12-19T00:36:39.901Z,16.10
2022-12-19T00:39:08.591Z,16.38
2022-12-19T00:41:37.607Z,20.23
2022-12-19T00:44:14.297Z,14.75
2022-12-19T00:46:41.601Z,13.23
2022-12-19T00:49:08.790Z,14.82
2022-12-19T00:51:37.310Z,14.95
2022-12-19T00:54:06.663Z,15.27
2022-12-19T00:56:37.519Z,21.33
2022-12-19T00:59:07.371Z,20.57
2022-12-19T01:01:37.270Z,21.30
2022-12-19T01:06:54.301Z,19.52
2022-12-19T01:09:25.280Z,16.65
2022-12-19T01:12:10.676Z,22.17
2022-12-19T01:14:38.006Z,18.63
2022-12-19T01:17:04.825Z,21.15
2022-12-19T01:19:31.977Z,17.88
2022-12-19T01:21:58.784Z,19.10
2022-12-19T01:24:26.124Z,21.63
2022-12-19T01:26:52.916Z,21.15
2022-12-19T01:29:20.049Z,16.50
2022-12-19T01:31:48.067Z,18.00
2022-12-19T01:34:15.237Z,17.45
2022-12-19T01:36:42.084Z,15.70
2022-12-19T01:39:09.231Z,19.33
2022-12-19T01:41:37.703Z,19.15
2022-12-19T01:44:07.865Z,21.80
2022-12-19T01:46:54.207Z,21.52
2022-12-19T01:49:28.165Z,21.63
2022-12-19T01:51:58.681Z,22.73
2022-12-19T01:54:31.745Z,21.67
2022-12-19T01:57:00.350Z,18.80
2022-12-19T01:59:32.212Z,21.05
2022-12-19T02:02:08.041Z,20.97
2022-12-19T02:04:35.696Z,23.15
2022-12-19T02:07:11.616Z,19.88
2022-12-19T02:09:52.963Z,21.10
2022-12-19T02:12:33.006Z,16.63
2022-12-19T02:15:03.179Z,16.67
2022-12-19T02:17:40.035Z,15.68
2022-12-19T02:20:19.273Z,14.95
2022-12-19T02:23:08.083Z,20.88
2022-12-19T02:25:37.668Z,24.45
2022-12-19T02:28:30.109Z,20.77
2022-12-19T02:31:19.781Z,19.00
2022-12-19T02:34:11.148Z,18.25
2022-12-19T02:36:53.146Z,25.75
2022-12-19T02:39:35.809Z,31.13
2022-12-19T02:42:05.595Z,26.97
2022-12-19T02:44:37.815Z,24.58
2022-12-19T02:47:07.099Z,21.60
2022-12-19T02:49:38.511Z,22.88
2022-12-19T02:52:09.987Z,24.27
2022-12-19T02:54:38.237Z,19.10
2022-12-19T02:57:44.988Z,15.27
2022-12-19T03:00:22.964Z,14.50
2022-12-19T03:03:00.513Z,14.48
2022-12-19T03:06:10.160Z,16.73
2022-12-19T03:09:01.706Z,13.40
2022-12-19T03:11:34.579Z,15.15
2022-12-19T03:14:17.522Z,18.23
2022-12-19T03:16:44.876Z,22.00
2022-12-19T03:19:14.337Z,18.92
2022-12-19T03:21:47.594Z,16.20
2022-12-19T03:24:16.688Z,21.65
2022-12-19T03:27:05.574Z,19.40
2022-12-19T03:29:36.101Z,23.30
2022-12-19T03:32:07.349Z,21.10
2022-12-19T03:34:51.896Z,20.20
2022-12-19T03:37:22.190Z,14.95
2022-12-19T03:39:54.303Z,15.95
2022-12-19T03:42:43.829Z,17.83
2022-12-19T03:45:13.464Z,15.65
2022-12-19T03:47:51.695Z,18.83
2022-12-19T03:50:19.178Z,19.42
2022-12-19T03:52:53.509Z,20.58
2022-12-19T03:55:32.052Z,16.02
2022-12-19T03:58:17.162Z,18.77
2022-12-19T04:00:47.496Z,17.80
2022-12-19T04:03:17.666Z,17.35
2022-12-19T04:05:46.939Z,24.45
2022-12-19T04:08:14.785Z,27.33
2022-12-19T04:10:48.465Z,29.73
2022-12-19T04:13:19.586Z,29.03
2022-12-19T04:15:55.831Z,20.30
2022-12-19T04:18:23.162Z,20.88
2022-12-19T04:20:58.093Z,19.67
2022-12-19T04:23:32.588Z,19.90
2022-12-19T04:26:03.201Z,22.47
2022-12-19T04:28:37.610Z,19.27
2022-12-19T04:31:06.682Z,22.88
2022-12-19T04:33:33.594Z,21.58
2022-12-19T04:36:00.838Z,25.63
2022-12-19T04:38:27.885Z,21.63
2022-12-19T04:40:54.995Z,19.15
2022-12-19T04:43:21.820Z,24.00
2022-12-19T04:45:52.701Z,25.20
2022-12-19T04:48:22.500Z,23.33
2022-12-19T04:50:49.614Z,29.83
2022-12-19T04:53:16.417Z,30.33
2022-12-19T04:55:44.333Z,28.90
2022-12-19T04:58:11.794Z,30.88
2022-12-19T05:00:39.054Z,29.27
2022-12-19T05:03:06.103Z,18.50
2022-12-19T05:05:33.390Z,24.05
2022-12-19T05:08:00.180Z,21.90
2022-12-19T05:10:27.288Z,20.65
2022-12-19T05:12:54.748Z,21.02
2022-12-19T05:15:22.003Z,16.90
2022-12-19T05:17:48.805Z,17.85
2022-12-19T05:20:15.989Z,26.73
2022-12-19T05:22:42.790Z,21.38
2022-12-19T05:25:10.288Z,20.90
2022-12-19T05:27:37.124Z,18.13
2022-12-19T05:30:04.743Z,16.85
2022-12-19T05:32:32.359Z,25.52
2022-12-19T05:34:59.508Z,25.15
2022-12-19T05:37:26.631Z,25.55
2022-12-19T05:39:53.904Z,25.70
2022-12-19T05:42:20.904Z,27.83
2022-12-19T05:44:48.263Z,25.60
2022-12-19T05:47:15.072Z,26.10
2022-12-19T05:49:42.218Z,23.35
2022-12-19T05:52:09.231Z,23.13
2022-12-19T05:54:36.356Z,19.80
2022-12-19T05:57:03.120Z,25.13
2022-12-19T05:59:30.238Z,23.67
2022-12-19T06:01:57.102Z,24.25
2022-12-19T06:04:24.825Z,22.67
2022-12-19T06:06:51.665Z,23.33
2022-12-19T06:09:19.138Z,26.45
2022-12-19T06:11:46.143Z,19.73
2022-12-19T06:14:13.521Z,25.30
2022-12-19T06:16:40.652Z,22.83
2022-12-19T06:19:07.801Z,24.48
2022-12-19T06:21:34.670Z,16.55
2022-12-19T06:24:01.786Z,15.40
2022-12-19T06:26:28.773Z,14.75
2022-12-19T06:28:56.133Z,16.20
2022-12-19T06:31:25.058Z,14.55
2022-12-19T06:33:52.611Z,22.15
2022-12-19T06:36:27.822Z,23.40
2022-12-19T06:38:57.969Z,20.40
2022-12-19T06:41:43.580Z,17.27
2022-12-19T06:44:13.302Z,18.92
2022-12-19T06:46:41.257Z,24.55
2022-12-19T06:49:10.334Z,22.48
2022-12-19T06:51:37.432Z,17.55
2022-12-19T06:54:05.021Z,19.73
2022-12-19T06:56:39.950Z,20.08
2022-12-19T06:59:07.992Z,19.70
2022-12-19T07:02:04.194Z,16.75
2022-12-19T07:04:35.876Z,15.43
2022-12-19T07:07:02.938Z,13.07
2022-12-19T07:09:31.027Z,22.48
2022-12-19T07:11:58.182Z,17.08
2022-12-19T07:14:25.376Z,20.38
2022-12-19T07:16:53.881Z,17.17
2022-12-19T07:19:22.732Z,20.57
2022-12-19T07:21:49.600Z,25.40
2022-12-19T07:24:16.958Z,22.30
2022-12-19T07:26:44.650Z,24.75
2022-12-19T07:29:12.274Z,22.38
2022-12-19T07:31:39.278Z,22.27
2022-12-19T07:34:06.402Z,19.50
2022-12-19T07:36:33.414Z,15.05
2022-12-19T07:39:01.389Z,14.63
2022-12-19T07:41:28.623Z,15.55
2022-12-19T07:43:55.766Z,13.87
2022-12-19T07:46:22.972Z,15.60
2022-12-19T07:48:50.799Z,16.27
2022-12-19T07:51:17.680Z,14.48
2022-12-19T07:53:44.826Z,18.92
2022-12-19T07:56:11.612Z,15.67
2022-12-19T07:58:38.764Z,16.48
2022-12-19T08:01:06.520Z,15.18
2022-12-19T08:03:36.067Z,19.90
2022-12-19T08:06:05.055Z,16.33
2022-12-19T08:08:33.060Z,17.87
2022-12-19T08:11:18.138Z,16.77
2022-12-19T08:13:47.033Z,14.05
2022-12-19T08:16:15.074Z,17.60
2022-12-19T08:18:42.413Z,16.70
2022-12-19T08:21:10.312Z,17.83
2022-12-19T08:23:41.367Z,22.55
2022-12-19T08:26:11.839Z,23.60
2022-12-19T08:28:39.320Z,24.05
2022-12-19T08:31:08.824Z,26.70
2022-12-19T08:33:36.801Z,21.43
2022-12-19T08:36:08.243Z,23.55
2022-12-19T08:38:36.125Z,24.52
2022-12-19T08:41:03.652Z,26.50
2022-12-19T08:43:30.806Z,20.60
2022-12-19T08:45:57.851Z,15.20
2022-12-19T08:48:25.611Z,15.65
2022-12-19T08:50:54.608Z,17.60
2022-12-19T08:53:26.220Z,21.02
2022-12-19T08:56:08.752Z,25.05
2022-12-19T08:58:35.968Z,22.03
2022-12-19T09:01:09.212Z,19.30
2022-12-19T09:03:52.726Z,18.17
2022-12-19T09:06:24.185Z,21.85
2022-12-19T09:08:51.590Z,20.50
2022-12-19T09:11:21.123Z,23.07
2022-12-19T09:13:49.105Z,23.73
2022-12-19T09:16:23.869Z,23.60
2022-12-19T09:18:53.396Z,22.65
2022-12-19T09:21:22.764Z,20.85
2022-12-19T09:23:53.730Z,22.30
2022-12-19T09:26:22.037Z,20.30
2022-12-19T09:28:50.997Z,20.20
2022-12-19T09:31:21.461Z,19.08
2022-12-19T09:33:48.756Z,19.90
2022-12-19T09:36:21.441Z,18.80
2022-12-19T09:38:49.460Z,20.55
2022-12-19T09:42:13.506Z,19.45
2022-12-19T09:44:56.813Z,16.73
2022-12-19T09:47:27.261Z,18.42
2022-12-19T09:49:54.690Z,22.60
2022-12-19T09:52:38.526Z,22.17
2022-12-19T09:55:18.823Z,25.33
2022-12-19T09:58:05.994Z,23.95
2022-12-19T10:00:58.624Z,23.65
2022-12-19T10:03:40.505Z,24.07
2022-12-19T10:07:18.442Z,24.48
2022-12-19T10:11:56.373Z,21.98
2022-12-19T10:12:45.532Z,20.50
2022-12-19T10:15:19.492Z,18.20
2022-12-19T10:18:24.721Z,18.63
2022-12-19T10:21:06.059Z,22.97
2022-12-19T10:24:12.626Z,25.33
2022-12-19T10:26:48.304Z,22.27
2022-12-19T10:29:46.609Z,25.65
2022-12-19T10:32:13.417Z,25.50
2022-12-19T10:34:43.394Z,25.73
2022-12-19T10:37:26.651Z,22.00
2022-12-19T10:40:05.432Z,23.23
2022-12-19T10:42:52.688Z,21.65
2022-12-19T10:45:21.641Z,23.13
2022-12-19T10:47:51.601Z,26.88
2022-12-19T10:50:25.761Z,25.52
2022-12-19T10:52:54.681Z,21.30
2022-12-19T10:55:30.057Z,25.48
2022-12-19T10:58:10.790Z,22.80
2022-12-19T11:00:39.239Z,20.70
2022-12-19T11:03:18.859Z,20.05
2022-12-19T11:05:57.854Z,24.27
2022-12-19T11:08:37.207Z,25.33
2022-12-19T11:14:50.016Z,22.15
2022-12-19T11:18:37.784Z,21.70
2022-12-19T11:24:46.172Z,22.17
2022-12-19T11:29:19.403Z,21.33
2022-12-19T11:29:40.284Z,22.57
2022-12-19T11:30:41.368Z,23.65
2022-12-19T11:30:43.545Z,21.95
2022-12-19T11:34:16.417Z,21.45
2022-12-19T11:36:58.604Z,20.17
2022-12-19T11:39:44.598Z,21.92
2022-12-19T11:42:31.032Z,19.10
2022-12-19T11:45:07.313Z,24.35
2022-12-19T11:47:42.129Z,22.98
2022-12-19T11:50:37.238Z,25.27
2022-12-19T11:53:16.798Z,24.90
2022-12-19T11:55:54.723Z,23.33
2022-12-19T11:58:23.932Z,24.15
2022-12-19T12:01:29.973Z,25.33
2022-12-19T12:04:15.663Z,25.83
2022-12-19T12:06:52.378Z,28.73
2022-12-19T12:13:15.021Z,25.85
2022-12-19T12:18:05.709Z,24.80
2022-12-19T12:28:08.812Z,23.52
2022-12-19T12:31:00.611Z,22.00
2022-12-19T12:31:15.936Z,20.05
2022-12-19T12:31:41.319Z,18.80
2022-12-19T12:32:00.973Z,18.95
2022-12-19T12:37:10.926Z,21.33
2022-12-19T12:41:07.161Z,20.80
2022-12-19T12:44:03.937Z,18.65
2022-12-19T12:46:46.144Z,22.10
2022-12-19T12:49:30.709Z,22.48
2022-12-19T12:52:01.130Z,21.50
2022-12-19T12:54:34.361Z,18.63
2022-12-19T12:57:02.895Z,18.75
2022-12-19T12:59:31.174Z,18.08
2022-12-19T13:02:13.818Z,16.95
2022-12-19T13:04:53.978Z,47.70
2022-12-19T13:07:41.558Z,30.48
2022-12-19T13:10:31.052Z,24.35
2022-12-19T13:13:12.637Z,20.35
2022-12-19T13:15:46.103Z,20.58
2022-12-19T13:18:12.982Z,19.17
2022-12-19T13:20:48.359Z,20.02
2022-12-19T13:23:30.633Z,18.35
2022-12-19T13:25:57.808Z,16.63
2022-12-19T13:28:24.602Z,17.13
2022-12-19T13:31:18.539Z,18.60
2022-12-19T13:33:54.718Z,16.02
2022-12-19T13:39:49.937Z,18.35
2022-12-19T13:40:12.088Z,18.13
2022-12-19T13:43:12.319Z,19.45
2022-12-19T13:45:42.658Z,14.80
2022-12-19T13:48:19.220Z,15.47
2022-12-19T13:50:48.217Z,16.00
2022-12-19T13:53:19.225Z,15.70
2022-12-19T13:55:46.547Z,17.17
2022-12-19T13:58:43.202Z,39.10
2022-12-19T14:01:21.517Z,27.80
2022-12-19T14:03:51.574Z,25.65
2022-12-19T14:06:22.927Z,24.38
2022-12-19T14:09:25.197Z,23.50
2022-12-19T14:13:46.679Z,25.33
2022-12-19T14:15:02.704Z,23.77
2022-12-19T14:17:36.867Z,24.30
2022-12-19T14:22:11.901Z,22.27
2022-12-19T14:23:04.783Z,21.20
2022-12-19T14:27:08.307Z,21.35
2022-12-19T14:28:40.128Z,21.03
2022-12-19T14:31:13.615Z,20.42
2022-12-19T14:34:11.169Z,15.77
2022-12-19T14:36:37.768Z,14.68
2022-12-19T14:39:27.234Z,16.05
2022-12-19T14:42:13.142Z,18.27
2022-12-19T14:51:51.544Z,20.00
2022-12-19T14:54:09.042Z,21.25
2022-12-19T14:54:13.005Z,20.95
2022-12-19T14:54:55.127Z,25.88
2022-12-19T14:56:57.575Z,23.42
2022-12-19T14:59:05.839Z,21.87
2022-12-19T15:01:35.031Z,20.45
2022-12-19T15:04:51.294Z,19.30
2022-12-19T15:07:09.923Z,15.77
2022-12-19T15:11:03.852Z,17.10
2022-12-19T15:14:46.785Z,16.40
2022-12-19T15:15:59.834Z,15.40
2022-12-19T15:18:32.922Z,14.70
2022-12-19T15:21:02.557Z,15.23
2022-12-19T15:23:30.001Z,14.75
2022-12-19T15:26:06.128Z,14.77
2022-12-19T15:28:43.261Z,14.85
2022-12-19T15:31:24.378Z,14.60
2022-12-19T15:36:38.627Z,16.38
2022-12-19T15:39:05.628Z,17.67
2022-12-19T15:41:32.857Z,17.60
2022-12-19T15:44:05.577Z,17.60
2022-12-19T15:46:33.726Z,15.25
2022-12-19T15:49:01.211Z,16.90
2022-12-19T15:51:28.338Z,15.87
2022-12-19T15:54:09.112Z,17.52
2022-12-19T15:56:46.997Z,15.38
2022-12-19T15:59:22.867Z,15.23
2022-12-19T16:01:52.097Z,15.73
2022-12-19T16:04:19.437Z,13.37
2022-12-19T16:06:46.685Z,25.92
2022-12-19T16:09:32.486Z,18.90
2022-12-19T16:12:00.372Z,16.67
2022-12-19T16:14:28.496Z,15.38
2022-12-19T16:16:56.468Z,15.57
2022-12-19T16:19:25.119Z,14.37
2022-12-19T16:21:52.504Z,14.82
2022-12-19T16:24:19.515Z,15.13
2022-12-19T16:26:53.070Z,13.85
2022-12-19T16:29:28.912Z,14.52
2022-12-19T16:31:56.167Z,14.70
2022-12-19T16:34:24.479Z,12.85
2022-12-19T16:36:52.064Z,13.05
2022-12-19T16:39:18.915Z,13.55
2022-12-19T16:41:47.187Z,12.30
2022-12-19T16:44:23.081Z,15.53
2022-12-19T16:46:51.722Z,16.50
2022-12-19T16:49:24.274Z,14.13
2022-12-19T16:51:51.813Z,15.38
2022-12-19T16:54:20.128Z,23.55
2022-12-19T16:56:54.145Z,25.65
2022-12-19T16:59:32.799Z,22.40
2022-12-19T17:02:00.604Z,16.30
2022-12-19T17:04:29.143Z,14.07
2022-12-19T17:06:56.700Z,12.00
2022-12-19T17:09:24.902Z,12.40
2022-12-19T17:11:56.317Z,10.37
2022-12-19T17:14:27.160Z,11.07
2022-12-19T17:16:55.619Z,12.13
2022-12-19T17:19:32.579Z,13.20
2022-12-19T17:21:59.706Z,12.85
2022-12-19T17:24:26.585Z,12.77
2022-12-19T17:26:53.777Z,11.85
2022-12-19T17:29:20.598Z,13.15
2022-12-19T17:31:47.891Z,16.23
2022-12-19T17:34:25.863Z,15.88
2022-12-19T17:36:53.088Z,15.90
2022-12-19T17:39:25.705Z,16.50
2022-12-19T17:41:55.482Z,14.68
2022-12-19T17:44:22.319Z,12.95
2022-12-19T17:46:49.535Z,11.98
2022-12-19T17:49:27.609Z,12.97
2022-12-19T17:51:56.221Z,11.82
2022-12-19T17:54:23.735Z,14.65
2022-12-19T17:56:51.168Z,16.98
2022-12-19T17:59:18.235Z,15.38
2022-12-19T18:01:48.956Z,17.43
2022-12-19T18:04:18.685Z,13.63
2022-12-19T18:06:46.515Z,16.20
2022-12-19T18:09:24.802Z,17.95
2022-12-19T18:11:52.843Z,18.42
2022-12-19T18:14:20.511Z,30.83
2022-12-19T18:16:50.273Z,31.55
2022-12-19T18:19:19.700Z,32.35
2022-12-19T18:21:47.294Z,29.70
2022-12-19T18:24:17.833Z,31.60
2022-12-19T18:26:44.982Z,39.13
2022-12-19T18:29:12.171Z,34.95
2022-12-19T18:31:46.508Z,27.63
2022-12-19T18:34:20.667Z,23.15
2022-12-19T18:36:48.469Z,20.17
2022-12-19T18:39:25.578Z,20.50
2022-12-19T18:41:53.296Z,16.52
2022-12-19T18:44:20.511Z,14.82
2022-12-19T18:46:49.849Z,18.55
2022-12-19T18:49:17.542Z,17.90
2022-12-19T18:51:45.024Z,15.83
2022-12-19T18:54:17.485Z,17.23
2022-12-19T18:56:45.341Z,16.13
2022-12-19T18:59:12.571Z,16.50
2022-12-19T19:01:43.496Z,18.38
2022-12-19T19:04:13.257Z,17.63
2022-12-19T19:06:48.501Z,15.38
2022-12-19T19:09:18.888Z,13.15
2022-12-19T19:12:17.618Z,17.17
2022-12-19T19:14:44.612Z,14.18
2022-12-19T19:17:23.465Z,15.60
2022-12-19T19:19:50.295Z,15.55
2022-12-19T19:22:17.753Z,29.27
2022-12-19T19:24:44.547Z,26.27
2022-12-19T19:27:11.681Z,30.83
2022-12-19T19:29:39.006Z,30.03
2022-12-19T19:32:06.150Z,28.25
2022-12-19T19:34:36.248Z,27.02
2022-12-19T19:37:06.020Z,25.95
2022-12-19T19:39:34.693Z,25.13
2022-12-19T19:42:02.356Z,20.40
2022-12-19T19:44:33.023Z,16.73
2022-12-19T19:47:00.369Z,22.25
2022-12-19T19:49:27.304Z,25.38
2022-12-19T19:52:01.959Z,26.13
2022-12-19T19:54:29.865Z,21.10
2022-12-19T19:56:57.107Z,17.02
2022-12-19T19:59:23.962Z,23.05
2022-12-19T20:01:54.407Z,26.38
2022-12-19T20:04:21.596Z,23.13
2022-12-19T20:06:49.533Z,25.60
2022-12-19T20:09:16.316Z,22.58
2022-12-19T20:11:43.537Z,22.98
2022-12-19T20:14:10.644Z,24.77
2022-12-19T20:16:38.125Z,21.02
2022-12-19T20:19:05.239Z,26.67
2022-12-19T20:21:33.443Z,28.00
2022-12-19T20:24:00.377Z,30.98
2022-12-19T20:26:27.705Z,31.40
2022-12-19T20:28:54.564Z,25.13
2022-12-19T20:31:23.955Z,28.43
2022-12-19T20:33:53.170Z,25.10
2022-12-19T20:36:21.336Z,27.65
2022-12-19T20:38:48.502Z,28.20
2022-12-19T20:41:16.302Z,23.02
2022-12-19T20:43:43.281Z,18.73
2022-12-19T20:46:16.233Z,15.73
2022-12-19T20:48:43.829Z,15.02
2022-12-19T20:51:12.460Z,15.07
2022-12-19T20:53:41.348Z,14.00
2022-12-19T20:56:15.104Z,22.37
2022-12-19T20:58:42.664Z,13.65
2022-12-19T21:01:15.880Z,14.35
2022-12-19T21:03:45.236Z,15.70
2022-12-19T21:06:15.704Z,21.88
2022-12-19T21:08:43.153Z,27.23
2022-12-19T21:11:11.495Z,31.38
2022-12-19T21:13:39.549Z,34.20
2022-12-19T21:16:09.042Z,33.10
2022-12-19T21:18:37.666Z,35.78
2022-12-19T21:21:07.396Z,34.73
2022-12-19T21:23:34.423Z,31.15
2022-12-19T21:26:04.360Z,29.83
2022-12-19T21:28:32.079Z,25.08
2022-12-19T21:31:07.903Z,19.88
2022-12-19T21:33:34.800Z,15.77
2022-12-19T21:36:09.285Z,14.20
2022-12-19T21:38:36.346Z,13.85
2022-12-19T21:41:06.017Z,13.43
2022-12-19T21:43:36.799Z,17.00
2022-12-19T21:46:12.696Z,24.63
2022-12-19T21:48:42.056Z,33.10
2022-12-19T21:51:10.077Z,34.28
2022-12-19T21:53:38.886Z,32.88
2022-12-19T21:56:22.062Z,32.88
2022-12-19T21:58:50.740Z,28.53
2022-12-19T22:01:18.419Z,32.22
2022-12-19T22:03:45.622Z,21.75
2022-12-19T22:06:27.037Z,18.08
2022-12-19T22:08:55.073Z,16.98
2022-12-19T22:11:22.918Z,18.20
2022-12-19T22:13:50.260Z,17.52
2022-12-19T22:16:18.078Z,15.25
2022-12-19T22:18:45.414Z,16.15
2022-12-19T22:21:14.764Z,16.80
2022-12-19T22:23:41.897Z,15.27
2022-12-19T22:26:20.409Z,25.05
2022-12-19T22:28:50.131Z,28.75
2022-12-19T22:31:23.854Z,25.63
2022-12-19T22:33:53.929Z,29.73
2022-12-19T22:36:27.614Z,27.30
2022-12-19T22:38:55.819Z,22.48
2022-12-19T22:41:22.996Z,15.95
2022-12-19T22:43:50.083Z,17.58
2022-12-19T22:46:20.277Z,25.15
2022-12-19T22:48:48.314Z,16.30
2022-12-19T22:51:17.080Z,14.38
2022-12-19T22:53:44.379Z,16.52
2022-12-19T22:56:14.935Z,17.88
2022-12-19T22:58:43.698Z,17.15
2022-12-19T23:01:25.415Z,15.53
2022-12-19T23:03:55.629Z,13.80
2022-12-19T23:06:25.790Z,14.43
2022-12-19T23:08:53.145Z,21.58
2022-12-19T23:11:24.420Z,22.80
2022-12-19T23:13:51.664Z,23.27
2022-12-19T23:16:19.433Z,23.88
2022-12-19T23:18:46.547Z,21.45
2022-12-19T23:21:19.927Z,20.35
2022-12-19T23:23:49.630Z,22.77
2022-12-19T23:26:23.314Z,20.07
2022-12-19T23:29:16.575Z,15.57
2022-12-19T23:31:46.202Z,18.88
2022-12-19T23:34:13.837Z,16.42
2022-12-19T23:39:28.154Z,12.07
2022-12-19T23:41:56.024Z,14.40
2022-12-19T23:44:23.069Z,15.35
2022-12-19T23:46:50.248Z,20.10
2022-12-19T23:49:17.300Z,18.40
2022-12-19T23:51:46.706Z,21.50
2022-12-19T23:54:13.765Z,14.68
2022-12-19T23:56:40.883Z,12.45
2022-12-19T23:59:07.822Z,13.35
